Time;durP1;ratioP1;P1;durP2;ratioP2;P2;SDS_P1;SDS_P2;PMS_P1;PMS_P2;Temp;Humidity;BMP_temperature;BMP_pressure;BME280_temperature;BME280_humidity;BME280_pressure;Samples;Min_cycle;Max_cycle;Signal;HPM_P1;HPM_P2
2021/04/15 00:01:01;;;;;;;1.23;0.63;;;5.10;99.90;;;;;;5092285;28;20040;-73
2021/04/15 00:03:30;;;;;;;1.67;0.40;;;5.00;99.90;;;;;;5092317;28;20085;-74
2021/04/15 00:05:59;;;;;;;;;;;5.10;99.90;;;;;;5091800;28;20058;-72
2021/04/15 00:08:25;;;;;;;0.52;0.30;;;5.10;99.90;;;;;;5092666;28;19914;-74
2021/04/15 00:10:54;;;;;;;0.35;0.30;;;5.10;99.90;;;;;;5091421;28;20032;-74
2021/04/15 00:13:30;;;;;;;0.95;0.40;;;5.00;99.90;;;;;;5092329;28;20023;-74
2021/04/15 00:15:56;;;;;;;1.00;0.50;;;4.90;99.90;;;;;;5092481;28;20044;-75
2021/04/15 00:18:22;;;;;;;0.75;0.40;;;4.80;99.90;;;;;;5092257;28;20046;-74
2021/04/15 00:20:48;;;;;;;0.93;0.30;;;4.70;99.90;;;;;;5091675;28;20131;-76
2021/04/15 00:23:14;;;;;;;0.95;0.20;;;4.70;99.90;;;;;;5091600;28;20132;-75
2021/04/15 00:25:40;;;;;;;5.60;0.40;;;4.80;99.90;;;;;;5091494;28;20039;-77
2021/04/15 00:28:06;;;;;;;2.05;0.28;;;4.80;99.90;;;;;;5092384;28;20020;-77
2021/04/15 00:30:32;;;;;;;1.70;0.43;;;4.70;99.90;;;;;;5093550;28;20178;-75
2021/04/15 00:32:57;;;;;;;1.20;0.20;;;4.70;99.90;;;;;;5094444;28;20032;-75
2021/04/15 00:35:23;;;;;;;0.50;0.28;;;4.70;99.90;;;;;;5096475;28;20105;-77
2021/04/15 00:37:49;;;;;;;4.30;0.52;;;4.80;99.90;;;;;;5093698;28;20016;-76
2021/04/15 00:40:18;;;;;;;1.65;0.45;;;4.80;99.90;;;;;;5091621;28;20016;-75
2021/04/15 00:42:44;;;;;;;3.58;0.95;;;4.80;99.90;;;;;;5091504;28;20098;-77
2021/04/15 00:45:16;;;;;;;1.92;0.30;;;4.80;99.90;;;;;;5093487;28;20028;-76
2021/04/15 00:47:44;;;;;;;0.32;0.32;;;4.70;99.90;;;;;;5094058;28;20059;-75
2021/04/15 00:50:19;;;;;;;;;;;4.70;99.90;;;;;;5097151;28;20028;-75
2021/04/15 00:52:49;;;;;;;0.95;0.30;;;4.60;99.90;;;;;;5095539;28;19959;-74
2021/04/15 00:55:20;;;;;;;1.83;0.40;;;4.60;99.90;;;;;;5090821;28;20487;-76
2021/04/15 00:57:48;;;;;;;0.90;0.40;;;4.50;99.90;;;;;;5096169;28;20024;-79
2021/04/15 01:00:17;;;;;;;0.60;0.60;;;4.40;99.90;;;;;;5094613;28;20494;-76
2021/04/15 01:02:43;;;;;;;0.90;0.30;;;4.40;99.90;;;;;;5093867;28;20468;-76
2021/04/15 01:05:24;;;;;;;1.70;0.70;;;4.30;99.90;;;;;;5095745;28;20031;-76
2021/04/15 01:07:51;;;;;;;1.67;0.40;;;4.30;99.90;;;;;;5095683;28;20074;-76
2021/04/15 01:10:17;;;;;;;0.38;0.38;;;4.30;99.90;;;;;;5096191;28;20036;-74
2021/04/15 01:13:28;;;;;;;3.63;0.52;;;4.30;99.90;;;;;;5096056;28;20032;-75
2021/04/15 01:16:24;;;;;;;1.55;0.40;;;4.30;99.90;;;;;;5079687;28;20093;-75
2021/04/15 01:19:05;;;;;;;2.15;0.68;;;4.30;99.90;;;;;;5088679;28;20047;-73
2021/04/15 01:21:54;;;;;;;2.88;0.50;;;4.30;99.90;;;;;;5096376;28;20503;-74
2021/04/15 01:24:45;;;;;;;4.25;0.70;;;4.30;99.90;;;;;;5113911;28;20032;-77
2021/04/15 01:27:39;;;;;;;1.10;0.80;;;4.30;99.90;;;;;;5102712;28;20098;-75
2021/04/15 01:30:21;;;;;;;0.73;0.60;;;4.30;99.90;;;;;;5114315;28;20024;-74
2021/04/15 01:32:58;;;;;;;4.47;0.80;;;4.30;99.90;;;;;;5117801;28;20055;-75
2021/04/15 01:35:32;;;;;;;1.05;0.45;;;4.30;99.90;;;;;;5119861;28;20068;-74
2021/04/15 01:38:03;;;;;;;1.83;0.43;;;4.30;99.90;;;;;;5119340;28;20035;-74
2021/04/15 01:40:39;;;;;;;5.90;0.80;;;4.20;99.90;;;;;;5102903;28;20032;-74
2021/04/15 01:43:30;;;;;;;0.63;0.60;;;4.20;99.90;;;;;;5098758;28;20082;-74
2021/04/15 01:45:57;;;;;;;0.93;0.63;;;4.20;99.90;;;;;;5097207;28;20427;-74
2021/04/15 01:48:48;;;;;;;0.73;0.40;;;4.20;99.90;;;;;;5095559;28;20032;-74
2021/04/15 01:51:23;;;;;;;2.75;0.73;;;4.30;99.90;;;;;;5095082;28;20127;-72
2021/04/15 01:54:12;;;;;;;2.30;0.90;;;4.30;99.90;;;;;;5094202;28;20028;-72
2021/04/15 01:56:46;;;;;;;0.60;0.60;;;4.40;99.90;;;;;;5093124;28;20535;-74
2021/04/15 01:59:25;;;;;;;8.05;1.35;;;4.40;99.90;;;;;;5094477;28;20032;-74
2021/04/15 02:01:55;;;;;;;2.05;0.85;;;4.40;99.90;;;;;;5094598;28;20039;-74
2021/04/15 02:04:28;;;;;;;2.70;1.13;;;4.50;99.90;;;;;;5095034;28;20095;-74
2021/04/15 02:07:06;;;;;;;0.90;0.85;;;4.50;99.90;;;;;;5093456;28;20488;-73
2021/04/15 02:09:34;;;;;;;2.28;1.58;;;4.40;99.90;;;;;;5093297;28;20135;-72
2021/04/15 02:12:10;;;;;;;1.90;0.82;;;4.40;99.90;;;;;;5094504;28;20441;-75
2021/04/15 02:14:37;;;;;;;0.93;0.80;;;4.30;99.90;;;;;;5093249;28;20074;-73
2021/04/15 02:17:07;;;;;;;1.20;0.85;;;4.30;99.90;;;;;;5094439;28;20020;-77
2021/04/15 02:19:32;;;;;;;3.75;2.28;;;4.30;99.90;;;;;;5094724;28;20048;-75
2021/04/15 02:22:20;;;;;;;2.30;1.15;;;4.20;99.90;;;;;;5094170;28;20071;-73
2021/04/15 02:25:20;;;;;;;1.67;1.23;;;4.20;99.90;;;;;;5092250;28;20035;-73
2021/04/15 02:28:22;;;;;;;6.47;1.10;;;4.20;99.90;;;;;;5077046;28;20135;-73
2021/04/15 02:31:13;;;;;;;1.48;1.17;;;4.10;99.90;;;;;;5090439;28;20160;-73
2021/04/15 02:33:50;;;;;;;4.40;1.50;;;4.10;99.90;;;;;;5092703;28;20039;-73
2021/04/15 02:36:17;;;;;;;6.22;1.52;;;4.10;99.90;;;;;;5109934;28;20380;-73
2021/04/15 02:39:09;;;;;;;5.80;2.03;;;4.10;99.90;;;;;;5098119;28;20021;-74
2021/04/15 02:41:38;;;;;;;3.05;2.38;;;4.10;99.90;;;;;;5099926;28;20077;-73
2021/04/15 02:44:19;;;;;;;3.80;2.25;;;4.10;99.90;;;;;;5112609;28;20047;-73
2021/04/15 02:46:50;;;;;;;3.67;1.95;;;4.10;99.90;;;;;;5102347;28;20031;-76
2021/04/15 02:49:17;;;;;;;3.15;2.50;;;4.10;99.90;;;;;;5114174;28;20028;-72
2021/04/15 02:51:58;;;;;;;3.58;2.45;;;4.10;99.90;;;;;;5092502;28;20042;-73
2021/04/15 02:54:36;;;;;;;3.35;2.60;;;4.10;99.90;;;;;;5080915;28;20495;-73
2021/04/15 02:57:24;;;;;;;5.82;2.63;;;4.10;99.90;;;;;;5092861;28;20040;-73
2021/04/15 02:59:56;;;;;;;5.28;2.67;;;4.10;99.90;;;;;;5092273;28;20388;-73
2021/04/15 03:02:26;;;;;;;9.48;3.80;;;4.20;99.90;;;;;;5092171;28;20024;-73
2021/04/15 03:05:00;;;;;;;6.43;3.28;;;4.10;99.90;;;;;;5094879;28;20024;-72
2021/04/15 03:07:29;;;;;;;4.30;3.17;;;4.10;99.90;;;;;;5092573;28;20024;-73
2021/04/15 03:09:58;;;;;;;7.25;3.28;;;4.20;99.90;;;;;;5093057;28;20456;-73
2021/04/15 03:12:50;;;;;;;7.32;3.15;;;4.20;99.90;;;;;;5093228;28;20372;-73
2021/04/15 03:15:28;;;;;;;9.05;3.38;;;4.20;99.90;;;;;;5095284;28;20100;-75
2021/04/15 03:18:01;;;;;;;8.80;3.88;;;4.20;99.90;;;;;;5109945;28;20028;-74
2021/04/15 03:20:37;;;;;;;9.75;4.25;;;4.20;99.90;;;;;;5116011;28;20016;-75
2021/04/15 03:23:22;;;;;;;6.38;3.90;;;4.20;99.90;;;;;;5114965;28;20031;-75
2021/04/15 03:25:51;;;;;;;7.57;3.63;;;4.20;99.90;;;;;;5114703;28;20032;-74
2021/04/15 03:28:38;;;;;;;10.23;3.92;;;4.20;99.90;;;;;;5117254;28;20027;-75
2021/04/15 03:31:16;;;;;;;7.30;3.95;;;4.20;99.90;;;;;;5117604;28;20069;-75
2021/04/15 03:34:24;;;;;;;9.40;4.35;;;4.20;99.90;;;;;;5115773;28;20023;-71
2021/04/15 03:36:52;;;;;;;4.55;3.97;;;4.10;99.90;;;;;;5036005;28;20025;-74
2021/04/15 03:39:30;;;;;;;9.65;4.00;;;4.10;99.90;;;;;;5092678;28;20043;-75
2021/04/15 03:42:01;;;;;;;12.02;4.55;;;4.10;99.90;;;;;;5102291;28;20028;-73
2021/04/15 03:44:41;;;;;;;9.27;3.53;;;4.00;99.90;;;;;;5104868;28;20043;-74
2021/04/15 03:47:13;;;;;;;7.28;4.25;;;4.00;99.90;;;;;;5096519;28;20414;-74
2021/04/15 03:49:48;;;;;;;9.80;3.78;;;3.90;99.90;;;;;;5081494;28;20032;-75
2021/04/15 03:52:28;;;;;;;8.45;5.10;;;3.90;99.90;;;;;;5098831;28;20026;-75
2021/04/15 03:55:14;;;;;;;9.25;4.10;;;3.90;99.90;;;;;;5087381;28;20376;-75
2021/04/15 03:57:41;;;;;;;10.50;4.20;;;3.90;99.90;;;;;;5092685;28;20028;-75
2021/04/15 04:00:15;;;;;;;8.23;4.13;;;3.80;99.90;;;;;;5095043;28;20027;-75
2021/04/15 04:02:48;;;;;;;6.65;4.43;;;3.70;99.90;;;;;;5094510;28;20024;-75
2021/04/15 04:05:28;;;;;;;9.75;3.90;;;3.60;99.90;;;;;;5097575;28;20024;-75
2021/04/15 04:08:01;;;;;;;7.88;3.92;;;3.60;99.90;;;;;;5099437;28;20031;-75
2021/04/15 04:10:31;;;;;;;10.05;4.70;;;3.50;99.90;;;;;;5098404;28;20480;-75
2021/04/15 04:13:22;;;;;;;13.63;4.50;;;3.50;99.90;;;;;;5100712;28;20063;-75
2021/04/15 04:16:01;;;;;;;8.43;4.38;;;3.40;99.90;;;;;;5098853;28;20365;-75
2021/04/15 04:18:31;;;;;;;7.53;4.00;;;3.50;99.90;;;;;;5100945;28;20032;-74
2021/04/15 04:21:08;;;;;;;9.77;4.25;;;3.60;99.90;;;;;;5098818;28;20028;-74
2021/04/15 04:23:42;;;;;;;13.00;4.53;;;3.60;99.90;;;;;;5095937;28;20040;-76
2021/04/15 04:26:18;;;;;;;12.93;4.28;;;3.70;99.90;;;;;;5096838;28;20067;-73
2021/04/15 04:29:07;;;;;;;10.38;4.47;;;3.70;99.90;;;;;;5097030;28;20040;-74
2021/04/15 04:31:38;;;;;;;11.10;4.07;;;3.70;99.90;;;;;;5096790;28;20127;-75
2021/04/15 04:34:06;;;;;;;18.00;4.90;;;3.80;99.90;;;;;;5095008;28;20020;-74
2021/04/15 04:36:34;;;;;;;17.27;4.43;;;3.80;99.90;;;;;;5096246;28;20032;-75
2021/04/15 04:39:00;;;;;;;17.50;4.78;;;3.80;99.90;;;;;;5096648;28;20020;-75
2021/04/15 04:41:34;;;;;;;9.13;4.15;;;3.70;99.90;;;;;;5095283;28;20076;-74
2021/04/15 04:44:06;;;;;;;8.15;4.05;;;3.70;99.90;;;;;;5097395;28;20052;-73
2021/04/15 04:46:46;;;;;;;15.85;5.05;;;3.70;99.90;;;;;;5096742;28;20406;-74
2021/04/15 04:49:18;;;;;;;5.25;3.65;;;3.70;99.90;;;;;;5097329;28;20083;-74
2021/04/15 04:51:52;;;;;;;5.15;3.92;;;3.70;99.90;;;;;;5096443;28;20035;-75
2021/04/15 04:54:19;;;;;;;6.93;3.67;;;3.70;99.90;;;;;;5096329;28;20028;-74
2021/04/15 04:56:56;;;;;;;11.45;4.13;;;3.70;99.90;;;;;;5096087;28;20024;-74
2021/04/15 04:59:28;;;;;;;12.45;4.65;;;3.70;99.90;;;;;;5095893;28;20047;-75
2021/04/15 05:01:54;;;;;;;7.00;3.75;;;3.70;99.90;;;;;;5088118;28;20016;-73
2021/04/15 05:04:21;;;;;;;8.50;4.28;;;3.80;99.90;;;;;;5093482;28;20055;-74
2021/04/15 05:06:48;;;;;;;14.93;4.60;;;3.70;99.90;;;;;;5096119;28;20040;-74
2021/04/15 05:09:20;;;;;;;9.05;5.03;;;3.70;99.90;;;;;;5114557;28;20095;-74
2021/04/15 05:11:48;;;;;;;10.55;4.97;;;3.70;99.90;;;;;;5117092;28;20067;-75
2021/04/15 05:14:21;;;;;;;15.68;5.68;;;3.70;99.90;;;;;;5116038;28;20032;-75
2021/04/15 05:17:05;;;;;;;8.60;4.78;;;3.70;99.90;;;;;;5115547;28;20051;-73
2021/04/15 05:19:35;;;;;;;13.85;5.30;;;3.70;99.90;;;;;;5082986;28;20468;-75
2021/04/15 05:22:04;;;;;;;9.73;4.80;;;3.60;99.90;;;;;;5100385;28;20039;-74
2021/04/15 05:24:45;;;;;;;13.07;5.82;;;3.60;99.90;;;;;;5097515;28;20110;-74
2021/04/15 05:27:15;;;;;;;15.15;5.00;;;3.60;99.90;;;;;;5094418;28;20066;-74
2021/04/15 05:29:43;;;;;;;10.27;4.75;;;3.70;99.90;;;;;;5097082;28;20028;-74
2021/04/15 05:32:14;;;;;;;10.40;4.07;;;3.70;99.90;;;;;;5105403;28;20036;-76
2021/04/15 05:34:44;;;;;;;11.75;5.40;;;3.80;99.90;;;;;;5095809;28;20032;-73
2021/04/15 05:37:16;;;;;;;11.15;5.13;;;3.90;99.90;;;;;;5095087;28;20099;-73
2021/04/15 05:39:42;;;;;;;9.63;4.85;;;4.00;99.90;;;;;;5096287;28;20103;-73
2021/04/15 05:42:33;;;;;;;10.85;5.13;;;4.10;99.90;;;;;;5096279;28;20028;-74
2021/04/15 05:45:10;;;;;;;11.48;5.45;;;4.20;99.90;;;;;;5092472;28;20047;-73
2021/04/15 05:48:06;;;;;;;14.33;5.30;;;4.30;99.90;;;;;;5094173;28;20050;-74
2021/04/15 05:50:34;;;;;;;16.65;5.80;;;4.30;99.90;;;;;;5092039;28;20024;-74
2021/04/15 05:53:15;;;;;;;11.05;4.80;;;4.40;99.90;;;;;;5096133;28;20056;-75
2021/04/15 05:56:01;;;;;;;10.13;5.72;;;4.50;99.90;;;;;;5098645;28;20020;-75
2021/04/15 05:58:35;;;;;;;10.45;5.65;;;4.60;99.90;;;;;;5100243;28;20039;-74
2021/04/15 06:01:17;;;;;;;10.38;5.25;;;4.90;99.90;;;;;;5097605;28;20446;-74
2021/04/15 06:03:59;;;;;;;14.00;5.20;;;5.10;99.90;;;;;;5095492;28;20024;-75
2021/04/15 06:06:38;;;;;;;13.98;5.10;;;5.30;99.90;;;;;;5093883;28;20024;-74
2021/04/15 06:09:06;;;;;;;10.60;5.00;;;5.60;99.90;;;;;;5095293;28;20533;-75
2021/04/15 06:11:53;;;;;;;10.95;4.65;;;5.70;99.90;;;;;;5092102;28;20491;-74
2021/04/15 06:14:45;;;;;;;11.95;5.18;;;5.80;99.90;;;;;;5089280;28;20043;-74
2021/04/15 06:17:26;;;;;;;7.38;4.25;;;5.90;99.90;;;;;;5086512;28;20040;-74
2021/04/15 06:20:06;;;;;;;8.05;4.40;;;6.10;99.90;;;;;;5095022;28;20099;-75
2021/04/15 06:22:36;;;;;;;6.57;3.50;;;6.30;99.90;;;;;;5094162;28;20088;-74
2021/04/15 06:25:14;;;;;;;8.43;3.40;;;6.60;99.90;;;;;;5094810;28;20026;-75
2021/04/15 06:27:41;;;;;;;10.25;4.60;;;6.80;99.90;;;;;;5094753;28;20387;-74
2021/04/15 06:30:27;;;;;;;5.93;3.33;;;6.90;99.90;;;;;;5093449;28;20070;-74
2021/04/15 06:32:59;;;;;;;7.05;3.53;;;6.90;99.90;;;;;;5094875;28;20381;-74
2021/04/15 06:35:26;;;;;;;7.28;2.78;;;7.00;99.90;;;;;;5094306;28;20483;-74
2021/04/15 06:37:58;;;;;;;6.93;3.05;;;6.80;99.90;;;;;;5094116;28;20063;-74
2021/04/15 06:40:38;;;;;;;4.57;3.50;;;6.70;99.90;;;;;;5088230;28;20027;-74
2021/04/15 06:43:12;;;;;;;4.65;2.33;;;6.70;99.90;;;;;;5093489;28;20487;-73
2021/04/15 06:46:02;;;;;;;9.60;2.80;;;6.70;99.90;;;;;;5093645;28;20064;-74
2021/04/15 06:49:05;;;;;;;5.30;2.85;;;6.80;99.90;;;;;;5088627;28;20051;-74
2021/04/15 06:51:53;;;;;;;6.20;2.50;;;6.90;99.90;;;;;;5095230;28;20028;-74
2021/04/15 06:54:44;;;;;;;8.63;2.25;;;7.00;99.90;;;;;;5094831;28;20085;-74
2021/04/15 06:57:26;;;;;;;3.30;1.67;;;7.20;99.90;;;;;;5113848;28;20024;-74
2021/04/15 07:00:25;;;;;;;1.67;1.40;;;7.20;99.90;;;;;;5110263;28;20016;-74
2021/04/15 07:03:11;;;;;;;5.93;1.83;;;7.30;99.90;;;;;;5115295;28;20031;-75
2021/04/15 07:05:58;;;;;;;4.40;1.63;;;7.30;99.90;;;;;;5116535;28;20035;-74
2021/04/15 07:08:43;;;;;;;9.03;2.50;;;7.40;99.90;;;;;;5115653;28;20024;-74
2021/04/15 07:11:38;;;;;;;14.20;1.83;;;7.40;99.90;;;;;;5112663;28;20043;-74
2021/04/15 07:14:17;;;;;;;5.72;2.40;;;7.40;99.90;;;;;;5097215;28;20020;-73
2021/04/15 07:16:59;;;;;;;5.32;1.63;;;7.30;99.90;;;;;;5097867;28;20031;-73
2021/04/15 07:19:59;;;;;;;7.63;2.00;;;7.30;99.90;;;;;;5093334;28;20020;-75
2021/04/15 07:22:52;;;;;;;2.08;1.85;;;7.20;99.90;;;;;;5092166;28;20024;-75
2021/04/15 07:25:37;;;;;;;6.00;1.98;;;7.20;99.90;;;;;;5092236;28;20032;-74
2021/04/15 07:28:20;;;;;;;8.23;2.28;;;7.10;99.90;;;;;;5088422;28;20043;-75
2021/04/15 07:30:55;;;;;;;1.63;1.38;;;6.90;99.90;;;;;;5093593;28;20068;-75
2021/04/15 07:34:03;;;;;;;2.53;1.60;;;6.70;99.90;;;;;;5091987;28;20070;-75
2021/04/15 07:36:42;;;;;;;;;;;6.50;99.90;;;;;;5018360;28;20033;-74
2021/04/15 07:39:26;;;;;;;4.10;1.88;;;6.60;99.90;;;;;;5018004;28;19996;-75
2021/04/15 07:42:29;;;;;;;1.63;1.40;;;6.80;99.90;;;;;;5070754;28;20040;-76
2021/04/15 07:45:19;;;;;;;9.90;1.63;;;7.20;99.90;;;;;;5084130;28;20036;-75
2021/04/15 07:48:02;;;;;;;4.10;1.95;;;7.50;99.90;;;;;;5092171;28;20373;-76
2021/04/15 07:50:48;;;;;;;7.25;1.67;;;7.60;99.90;;;;;;5093173;28;20016;-76
2021/04/15 07:53:33;;;;;;;4.43;2.17;;;7.70;99.90;;;;;;5090247;28;20088;-74
2021/04/15 07:56:20;;;;;;;4.35;1.60;;;7.70;99.90;;;;;;5085488;28;20472;-75
2021/04/15 07:59:14;;;;;;;1.75;1.35;;;7.60;99.90;;;;;;5087601;28;20456;-74
2021/04/15 08:01:50;;;;;;;10.30;1.55;;;7.60;99.90;;;;;;5085778;28;20105;-75
2021/04/15 08:04:33;;;;;;;1.42;1.02;;;7.70;99.90;;;;;;5089818;28;20024;-75
2021/04/15 08:07:20;;;;;;;2.80;1.35;;;7.90;99.90;;;;;;5087103;28;20028;-75
2021/04/15 08:09:55;;;;;;;6.72;1.95;;;8.00;99.90;;;;;;5091879;28;20488;-75
2021/04/15 08:12:51;;;;;;;6.78;1.60;;;8.10;99.90;;;;;;5088174;28;20024;-76
2021/04/15 08:15:53;;;;;;;4.43;1.10;;;8.30;99.90;;;;;;5090480;28;20043;-75
2021/04/15 08:18:56;;;;;;;2.67;1.27;;;8.40;99.90;;;;;;5086240;28;20020;-75
2021/04/15 08:21:41;;;;;;;2.40;1.85;;;8.30;99.90;;;;;;5090899;28;20095;-74
2021/04/15 08:24:25;;;;;;;3.20;1.27;;;8.00;99.90;;;;;;5090622;28;20115;-73
2021/04/15 08:27:06;;;;;;;5.43;1.75;;;7.70;99.90;;;;;;5088813;28;20040;-73
2021/04/15 08:29:50;;;;;;;5.25;1.80;;;7.70;99.90;;;;;;5085964;28;20089;-73
2021/04/15 08:32:39;;;;;;;3.42;1.77;;;7.60;99.90;;;;;;5089243;28;20464;-74
2021/04/15 08:35:56;;;;;;;4.63;1.83;;;7.40;99.90;;;;;;5091250;28;20024;-73
2021/04/15 08:38:51;;;;;;;3.83;1.50;;;7.40;99.90;;;;;;5097726;28;20044;-74
2021/04/15 08:41:42;;;;;;;1.25;1.13;;;7.40;99.90;;;;;;5105925;28;20095;-74
2021/04/15 08:44:32;;;;;;;5.45;1.73;;;7.60;99.90;;;;;;5106974;28;20373;-73
2021/04/15 08:47:06;;;;;;;1.50;1.40;;;7.40;99.90;;;;;;5105330;28;20020;-74
2021/04/15 08:49:35;;;;;;;2.03;1.50;;;7.50;99.90;;;;;;5108781;28;20040;-72
2021/04/15 08:52:15;;;;;;;4.05;1.52;;;7.40;99.90;;;;;;5117215;28;20032;-72
2021/04/15 08:54:52;;;;;;;2.38;1.60;;;7.30;99.90;;;;;;5087224;28;20092;-73
2021/04/15 08:57:37;;;;;;;2.97;2.00;;;7.20;99.90;;;;;;5086729;28;20467;-73
2021/04/15 09:00:24;;;;;;;3.97;1.77;;;7.30;99.90;;;;;;5093857;28;20494;-74
2021/04/15 09:03:07;;;;;;;2.42;2.00;;;7.30;99.90;;;;;;5110527;28;20047;-74
2021/04/15 09:05:55;;;;;;;3.80;1.77;;;7.20;99.90;;;;;;5088225;28;20047;-74
2021/04/15 09:08:43;;;;;;;3.13;1.75;;;7.40;99.90;;;;;;5093313;28;20080;-75
2021/04/15 09:11:13;;;;;;;2.53;1.48;;;8.00;99.90;;;;;;5090577;28;20084;-75
2021/04/15 09:14:15;;;;;;;3.03;1.50;;;8.20;99.90;;;;;;5093536;28;20028;-74
2021/04/15 09:16:52;;;;;;;3.03;1.30;;;8.40;99.90;;;;;;5095028;28;20028;-74
2021/04/15 09:19:35;;;;;;;1.25;1.15;;;8.60;99.90;;;;;;5093648;28;20498;-75
2021/04/15 09:22:30;;;;;;;1.80;1.30;;;8.90;99.90;;;;;;5092712;28;20040;-73
2021/04/15 09:24:59;;;;;;;2.65;1.08;;;9.00;99.90;;;;;;5091493;28;20062;-76
2021/04/15 09:27:52;;;;;;;1.27;1.00;;;8.70;99.90;;;;;;5094791;28;20024;-74
2021/04/15 09:30:37;;;;;;;1.50;1.40;;;8.90;99.90;;;;;;5093705;28;20020;-75
2021/04/15 09:33:40;;;;;;;1.45;1.35;;;9.30;99.90;;;;;;5090163;28;20131;-74
2021/04/15 09:36:10;;;;;;;1.17;1.10;;;9.60;99.90;;;;;;5090961;28;20039;-74
2021/04/15 09:39:10;;;;;;;1.73;0.98;;;10.00;99.90;;;;;;5093764;28;20500;-73
2021/04/15 09:42:16;;;;;;;1.15;1.05;;;9.80;99.90;;;;;;5094237;28;20024;-74
2021/04/15 09:44:53;;;;;;;2.70;1.15;;;10.00;99.90;;;;;;5092600;28;20068;-73
2021/04/15 09:47:39;;;;;;;2.57;1.20;;;10.60;99.90;;;;;;5094639;28;20027;-75
2021/04/15 09:50:30;;;;;;;2.50;1.35;;;10.60;99.90;;;;;;5093185;28;20074;-74
2021/04/15 09:53:08;;;;;;;5.38;1.50;;;10.40;99.90;;;;;;5094590;28;20031;-75
2021/04/15 09:55:48;;;;;;;1.48;0.90;;;10.30;99.90;;;;;;5090973;28;20107;-75
2021/04/15 09:58:34;;;;;;;3.97;1.02;;;10.00;99.90;;;;;;5091230;28;20418;-74
2021/04/15 10:01:09;;;;;;;1.38;1.05;;;10.00;99.90;;;;;;5092792;28;20024;-75
2021/04/15 10:04:26;;;;;;;2.78;1.55;;;10.00;99.90;;;;;;5092770;28;20059;-74
2021/04/15 10:06:59;;;;;;;3.17;0.95;;;10.00;99.90;;;;;;5052319;28;20493;-77
2021/04/15 10:09:36;;;;;;;1.02;1.00;;;9.70;99.90;;;;;;5090421;28;20532;-75
2021/04/15 10:12:18;;;;;;;1.60;1.00;;;9.80;99.90;;;;;;5085959;28;20028;-73
2021/04/15 10:15:18;;;;;;;0.90;0.90;;;10.30;99.90;;;;;;5085230;28;20051;-73
2021/04/15 10:18:07;;;;;;;1.42;0.95;;;10.00;99.90;;;;;;5091044;28;20051;-74
2021/04/15 10:20:53;;;;;;;2.67;0.93;;;9.80;99.90;;;;;;5074351;28;20119;-75
2021/04/15 10:23:35;;;;;;;2.38;1.10;;;9.90;99.90;;;;;;5093364;28;20058;-76
2021/04/15 10:26:15;;;;;;;1.10;0.93;;;9.70;99.90;;;;;;5098744;28;20026;-73
2021/04/15 10:28:55;;;;;;;3.63;1.25;;;9.70;99.90;;;;;;5110918;28;20012;-74
2021/04/15 10:31:46;;;;;;;1.45;1.20;;;9.50;99.90;;;;;;5110830;28;20016;-74
2021/04/15 10:34:44;;;;;;;1.30;1.15;;;9.50;99.90;;;;;;5104104;28;20044;-74
2021/04/15 10:37:47;;;;;;;0.55;0.55;;;9.60;99.90;;;;;;5113944;28;20048;-73
2021/04/15 10:40:37;;;;;;;7.38;1.73;;;9.90;99.90;;;;;;5114145;28;20036;-73
2021/04/15 10:43:11;;;;;;;0.77;0.63;;;9.80;99.90;;;;;;5112651;28;20032;-74
2021/04/15 10:46:07;;;;;;;0.70;0.70;;;10.20;99.90;;;;;;5097731;28;20488;-73
2021/04/15 10:48:41;;;;;;;2.35;0.90;;;10.20;99.90;;;;;;5095351;28;20484;-74
2021/04/15 10:51:14;;;;;;;1.80;0.80;;;10.40;99.90;;;;;;5091691;28;20039;-73
2021/04/15 10:54:03;;;;;;;1.48;0.80;;;10.50;99.90;;;;;;5092953;28;20043;-74
2021/04/15 10:56:52;;;;;;;1.65;0.77;;;10.70;99.90;;;;;;5090601;28;20035;-74
2021/04/15 10:59:47;;;;;;;1.00;0.90;;;10.80;99.90;;;;;;5089368;28;20028;-74
2021/04/15 11:02:46;;;;;;;0.80;0.73;;;10.80;99.90;;;;;;5089494;28;20036;-74
2021/04/15 11:05:39;;;;;;;0.93;0.60;;;10.90;99.90;;;;;;5091397;28;20073;-73
2021/04/15 11:08:09;;;;;;;1.55;0.85;;;11.00;99.20;;;;;;5091780;28;20028;-74
2021/04/15 11:10:36;;;;;;;2.85;0.93;;;11.20;99.20;;;;;;5087900;28;20032;-73
2021/04/15 11:13:24;;;;;;;1.03;0.80;;;11.30;98.60;;;;;;5089154;28;20016;-73
2021/04/15 11:15:51;;;;;;;;;;;11.60;98.40;;;;;;5084298;28;20107;-73
2021/04/15 11:18:28;;;;;;;4.47;0.80;;;11.90;97.90;;;;;;5091028;28;19911;-71
2021/04/15 11:21:30;;;;;;;0.93;0.70;;;12.10;97.90;;;;;;5089919;28;20122;-71
2021/04/15 11:24:21;;;;;;;1.52;0.80;;;11.90;97.50;;;;;;5088556;28;20241;-72
2021/04/15 11:26:51;;;;;;;0.50;0.50;;;11.80;98.60;;;;;;5088348;28;20119;-71
2021/04/15 11:29:25;;;;;;;0.80;0.75;;;12.00;97.60;;;;;;5091261;28;20032;-72
2021/04/15 11:31:52;;;;;;;2.70;1.70;;;12.00;97.50;;;;;;5087294;28;20093;-72
2021/04/15 11:34:26;;;;;;;1.58;0.88;;;11.70;97.00;;;;;;5091315;28;20066;-71
2021/04/15 11:37:02;;;;;;;1.35;0.85;;;11.30;98.00;;;;;;5090829;28;20077;-72
2021/04/15 11:39:32;;;;;;;0.70;0.70;;;11.10;98.10;;;;;;5090100;28;20139;-75
2021/04/15 11:41:59;;;;;;;1.13;1.08;;;11.00;98.50;;;;;;5091636;28;20061;-73
2021/04/15 11:44:28;;;;;;;2.42;1.17;;;11.00;98.90;;;;;;5091455;28;20506;-73
2021/04/15 11:47:04;;;;;;;0.98;0.98;;;10.60;99.30;;;;;;5089859;28;20067;-73
2021/04/15 11:49:45;;;;;;;1.05;1.00;;;10.50;99.90;;;;;;5090801;28;20036;-72
2021/04/15 11:52:32;;;;;;;1.20;0.90;;;10.60;99.90;;;;;;5093097;28;20055;-72
2021/04/15 11:54:57;;;;;;;0.82;0.82;;;10.60;99.90;;;;;;5093659;28;20387;-73
2021/04/15 11:57:30;;;;;;;4.57;0.93;;;10.50;99.40;;;;;;5092937;28;20121;-71
2021/04/15 11:59:56;;;;;;;1.40;1.10;;;10.60;99.50;;;;;;5092956;28;20035;-75
2021/04/15 12:02:33;;;;;;;1.42;1.33;;;10.70;99.60;;;;;;5093201;28;20516;-74
2021/04/15 12:05:13;;;;;;;3.00;1.00;;;10.50;99.90;;;;;;5093305;28;20039;-72
2021/04/15 12:07:51;;;;;;;1.48;1.15;;;10.80;99.50;;;;;;5091865;28;20034;-74
2021/04/15 12:10:21;;;;;;;5.03;1.00;;;11.40;99.10;;;;;;5072756;28;20039;-73
2021/04/15 12:12:49;;;;;;;2.63;1.30;;;11.90;97.70;;;;;;5072809;28;20114;-74
2021/04/15 12:15:25;;;;;;;1.35;1.08;;;11.80;97.80;;;;;;5072871;28;20051;-74
2021/04/15 12:18:18;;;;;;;4.78;1.20;;;11.30;99.50;;;;;;5091119;28;20044;-76
2021/04/15 12:20:52;;;;;;;1.00;0.88;;;11.10;98.80;;;;;;5093567;28;20475;-74
2021/04/15 12:23:30;;;;;;;1.20;0.95;;;11.10;98.10;;;;;;5093668;28;20032;-73
2021/04/15 12:26:01;;;;;;;2.50;1.02;;;10.90;99.20;;;;;;5095059;28;20039;-73
2021/04/15 12:28:42;;;;;;;1.20;1.10;;;10.50;99.90;;;;;;5096625;28;20046;-73
2021/04/15 12:31:25;;;;;;;2.75;1.30;;;10.50;99.90;;;;;;5097638;28;20125;-71
2021/04/15 12:34:13;;;;;;;1.25;1.05;;;10.50;99.10;;;;;;5097956;28;20059;-73
2021/04/15 12:36:51;;;;;;;4.25;1.08;;;10.50;99.00;;;;;;5111172;28;20024;-73
2021/04/15 12:39:28;;;;;;;6.05;1.55;;;10.60;99.30;;;;;;5116515;28;20377;-73
2021/04/15 12:41:55;;;;;;;2.45;1.15;;;10.70;99.50;;;;;;5114581;28;20024;-74
2021/04/15 12:44:28;;;;;;;1.37;1.27;;;10.90;98.30;;;;;;5116651;28;20048;-73
2021/04/15 12:46:57;;;;;;;1.80;1.10;;;11.00;98.50;;;;;;5101692;28;20031;-74
2021/04/15 12:49:25;;;;;;;1.25;1.00;;;11.00;99.30;;;;;;5098281;28;20020;-74
2021/04/15 12:51:55;;;;;;;;;;;11.00;98.00;;;;;;5098175;28;20040;-73
2021/04/15 12:54:42;;;;;;;1.00;0.90;;;11.00;97.90;;;;;;5097387;28;19916;-73
2021/04/15 12:57:12;;;;;;;4.85;1.17;;;11.00;97.70;;;;;;5095448;28;20111;-73
2021/04/15 12:59:44;;;;;;;3.67;1.45;;;11.00;97.30;;;;;;5093495;28;20067;-72
2021/04/15 13:02:22;;;;;;;1.25;1.10;;;11.00;96.00;;;;;;5094736;28;20119;-73
2021/04/15 13:04:54;;;;;;;1.65;1.00;;;10.90;96.30;;;;;;5094534;28;20040;-73
2021/04/15 13:07:25;;;;;;;7.63;2.22;;;10.80;96.10;;;;;;5094508;28;20028;-74
2021/04/15 13:09:53;;;;;;;3.65;1.08;;;10.90;95.70;;;;;;5094982;28;20036;-73
2021/04/15 13:12:19;;;;;;;;;;;10.90;96.80;;;;;;5095016;28;20495;-73
2021/04/15 13:14:48;;;;;;;2.58;0.90;;;10.80;96.30;;;;;;5092219;28;19955;-74
2021/04/15 13:17:34;;;;;;;2.05;1.20;;;10.70;96.80;;;;;;5091615;28;20063;-75
2021/04/15 13:20:06;;;;;;;1.73;1.25;;;10.80;95.40;;;;;;5111110;28;20020;-76
2021/04/15 13:22:35;;;;;;;4.82;1.42;;;10.90;96.50;;;;;;5095382;28;20035;-76
2021/04/15 13:25:01;;;;;;;3.05;1.20;;;10.90;96.10;;;;;;5100603;28;20005;-77
2021/04/15 13:27:36;;;;;;;3.88;0.90;;;11.00;97.10;;;;;;5105286;28;20129;-75
2021/04/15 13:30:17;;;;;;;1.42;1.08;;;11.10;96.30;;;;;;5094710;28;20028;-76
2021/04/15 13:33:10;;;;;;;1.27;1.17;;;10.90;97.20;;;;;;5094058;28;20039;-76
2021/04/15 13:35:50;;;;;;;1.55;1.00;;;11.00;97.60;;;;;;5089747;28;20020;-76
2021/04/15 13:38:45;;;;;;;0.95;0.95;;;11.30;97.40;;;;;;5090748;28;20392;-76
2021/04/15 13:41:51;;;;;;;1.88;0.85;;;11.80;95.00;;;;;;5089614;28;20089;-75
2021/04/15 13:44:56;;;;;;;8.88;1.02;;;11.90;94.90;;;;;;5094240;28;20050;-76
2021/04/15 13:47:43;;;;;;;1.27;0.90;;;12.30;92.50;;;;;;5090771;28;20177;-76
2021/04/15 13:50:10;;;;;;;1.92;1.13;;;12.20;92.70;;;;;;5088960;28;20059;-75
2021/04/15 13:52:37;;;;;;;4.20;1.37;;;12.50;92.20;;;;;;5090538;28;20194;-75
2021/04/15 13:55:46;;;;;;;2.53;1.15;;;12.80;92.20;;;;;;5092462;28;20032;-76
2021/04/15 13:58:13;;;;;;;0.95;0.85;;;13.20;93.20;;;;;;5110214;28;20028;-76